Pagrindinis puslapis
METAR-TAF:

METAR-TAF

Oro uostai :

Kešmas, Iranas

platuma: 26-45-18N, ilguma: 055-54-08E, Aukštis: 12 m

Dabartinis oras

Ataskaita buvo paskelbta 42 minutes, ne 15:00 UTC
Vėjas 8 kt iš Rytų
Temperatūra 23°C
Drėgmė 73%
Slėgis 1007 hPa
Matomumas: 8000 m
Išsisklaidę debesys ne aukštis 2500 ft
Su prošvaistėmis ne aukštis 10000 ft

METAR: OIKQ 291500Z 09008KT 8000 SCT025 BKN100 23/18 Q1007

Laikas: 20:12 (15:42 UTC)


TAF: trūkstamas

Orai ataskaitas ir orų prognozės (METAR, TAF).

turimą stotys yra geltonos ir raudonos taškus žemėlapyje.

Perkelti pele per norėdami pamatyti stoties vardą.

Tada spustelėkite, norėdami matyti oro stebėjimo ir prognozės.

Norėdami pakeisti žemėlapį: spustelėkite ant žalios mygtukų su juodo kryžiaus žemyn,; žalią mygtuką su brūkšneliu, jei norite nutolinti; arba žalių rodyklių gretimoms žemėlapius.


METAR-TAF: